Details From CYEV - Inuvik Mike Zubko
To CYVQ - Norman Wells
Flight Number -
Tags Generated
Created
Modified
Stats Distance 245 nm / 454 km
Max Altitude 0 ft / 0 m
Waypoints 3
Social Downloads 0
Likes 0
Share VATSIM

Download

Looking for another format? Having issues loading an existing format? Contact us
Advertisement - Login to hide

Notes

Generated

Route

CYEV YVQ CYVQ

ID Type Via Altitude Latitude Longitude Leg Dist Tot Dist Heading (true) Name
O CYEV APT - 0 ft / 0 m 68.30319˚ -133.50528˚ - 0 nm - -
YVQ VOR - 0 ft / 0 m 65.26425˚ -126.72517˚ 242 nm 242 nm 136° / 142° -
O CYVQ APT - 0 ft / 0 m 65.28556˚ -126.81539˚ 2 nm 245 nm 299° / 299° -

Altitude Profile

Advertisement - Login to hide

Weather


0- 5 10 15 20 25 30 35+ Temperature / ° C

Clouds and Precipitation
Forecast for 2017-12-16 18:00 UTC. Updated 15 minutes ago

Ground ~20,000 ft ~40,000 ft Winds

CYEV

Details ICAO CYEV (YEV)
Name INUVIK MIKE ZUBKO
Region Canada
Timezone America/Inuvik (UTC-7.0)
Stats Elevation 224 ft / 68 m (AMSL)
Location 68.303792° -133.483167°
Runways 1
Magnetic Variation 21.597° E

METAR

CYEV 161300Z 08006KT 10SM -SN FEW008 BKN020 OVC035 M12/M14 A2957 RMK ST1SC5SC3 ST TR SLP024

Decode

TAF

TAF CYEV 161238Z 1613/1701 08005KT P6SM -SN SCT012 OVC025 TEMPO 1613/1701 5SM -SN BKN008 OVC020 RMK NXT FCST BY 161900Z

Decode

Departure Runways

ID Width Length Bearing (true) Bearing (mag) Surface Threshold Offset Overrun Length
06 150 ft / 46 m 5,982 ft / 1,823 m 85.80° 64.20° Asphalt 0 ft / 0 m 0 ft / 0 m
24 150 ft / 46 m 5,982 ft / 1,823 m 265.84° 244.24° Asphalt 0 ft / 0 m 0 ft / 0 m

CYVQ

Details ICAO CYVQ (YVQ)
Name NORMAN WELLS
Region Canada
Timezone America/Yellowknife (UTC-7.0)
Stats Elevation 238 ft / 73 m (AMSL)
Location 65.281616° -126.798222°
Runways 1
Magnetic Variation 21.030° E

METAR

CYVQ 161300Z 13004KT 30SM FEW067 FEW210 M14/M16 A2961 RMK AC1CI1 CI TR FROIN SLP035

Decode

TAF

TAF CYVQ 161138Z 1612/1624 08005KT P6SM SCT015 BKN050 OVC100 TEMPO 1612/1615 5SM -SN BKN015 OVC040 FM161500 VRB03KT P6SM FEW020 SCT060 RMK NXT FCST BY 161800Z

Decode

Destination Runways

ID Width Length Bearing (true) Bearing (mag) Surface Threshold Offset Overrun Length
09 150 ft / 46 m 5,977 ft / 1,822 m 118.74° 97.71° Asphalt 0 ft / 0 m 0 ft / 0 m
27 150 ft / 46 m 5,977 ft / 1,822 m 298.78° 277.75° Asphalt 0 ft / 0 m 0 ft / 0 m

Popular Alternatives